createdAt,value
2022-09-05T00:02:24.623Z,16.70
2022-09-05T00:05:16.053Z,16.70
2022-09-05T00:08:14.348Z,16.80
2022-09-05T00:11:39.937Z,16.80
2022-09-05T00:15:14.349Z,16.70
2022-09-05T00:18:31.089Z,16.70
2022-09-05T00:24:34.755Z,16.70
2022-09-05T00:24:42.307Z,16.60
2022-09-05T00:27:29.107Z,16.50
2022-09-05T00:31:06.831Z,16.40
2022-09-05T00:33:19.899Z,16.40
2022-09-05T00:36:17.666Z,16.30
2022-09-05T00:39:00.372Z,16.30
2022-09-05T00:41:34.535Z,16.20
2022-09-05T00:44:09.459Z,16.20
2022-09-05T00:46:56.391Z,16.10
2022-09-05T00:49:40.640Z,16.00
2022-09-05T00:52:28.487Z,16.10
2022-09-05T00:55:27.819Z,16.10
2022-09-05T00:58:33.881Z,16.10
2022-09-05T01:01:30.658Z,16.10
2022-09-05T01:04:26.775Z,16.20
2022-09-05T01:07:03.948Z,16.10
2022-09-05T01:10:23.604Z,16.20
2022-09-05T01:13:35.876Z,16.10
2022-09-05T01:16:47.815Z,16.00
2022-09-05T01:20:04.753Z,15.90
2022-09-05T01:23:12.879Z,15.90
2022-09-05T01:26:04.166Z,15.90
2022-09-05T01:29:15.152Z,15.90
2022-09-05T01:32:23.536Z,15.90
2022-09-05T01:35:33.977Z,15.80
2022-09-05T01:38:35.902Z,15.80
2022-09-05T01:41:33.370Z,15.80
2022-09-05T01:44:43.980Z,15.80
2022-09-05T01:47:35.290Z,15.80
2022-09-05T01:50:32.187Z,15.80
2022-09-05T01:53:27.423Z,15.70
2022-09-05T01:56:10.361Z,15.70
2022-09-05T01:58:52.327Z,15.70
2022-09-05T02:01:35.585Z,15.60
2022-09-05T02:04:14.446Z,15.50
2022-09-05T02:07:19.245Z,15.40
2022-09-05T02:10:07.186Z,15.40
2022-09-05T02:13:03.304Z,15.40
2022-09-05T02:16:07.309Z,15.40
2022-09-05T02:19:01.227Z,15.40
2022-09-05T02:21:56.752Z,15.40
2022-09-05T02:24:48.970Z,15.50
2022-09-05T02:27:43.548Z,15.50
2022-09-05T02:30:26.725Z,15.50
2022-09-05T02:33:24.093Z,15.50
2022-09-05T02:36:23.322Z,15.50
2022-09-05T02:43:30.352Z,15.50
2022-09-05T02:45:21.085Z,15.50
2022-09-05T02:45:26.909Z,15.40
2022-09-05T02:48:32.555Z,15.40
2022-09-05T02:57:23.423Z,15.30
2022-09-05T02:57:37.964Z,15.30
2022-09-05T02:58:07.675Z,15.30
2022-09-05T03:00:53.080Z,15.30
2022-09-05T03:03:39.975Z,15.30
2022-09-05T03:06:34.361Z,15.30
2022-09-05T03:09:22.981Z,15.30
2022-09-05T03:12:29.164Z,15.30
2022-09-05T03:15:40.015Z,15.30
2022-09-05T03:18:24.646Z,15.20
2022-09-05T03:21:35.218Z,15.20
2022-09-05T03:24:26.896Z,15.20
2022-09-05T03:27:29.402Z,15.20
2022-09-05T03:30:17.472Z,15.20
2022-09-05T03:35:53.714Z,15.00
2022-09-05T03:38:54.362Z,15.00
2022-09-05T03:41:40.243Z,14.90
2022-09-05T03:44:37.726Z,14.90
2022-09-05T03:47:47.121Z,14.90
2022-09-05T03:57:04.286Z,14.90
2022-09-05T03:57:12.923Z,14.90
2022-09-05T03:57:37.055Z,14.90
2022-09-05T04:00:34.703Z,15.00
2022-09-05T04:07:08.686Z,15.00
2022-09-05T04:08:18.540Z,15.10
2022-09-05T04:09:51.967Z,15.10
2022-09-05T04:12:55.544Z,15.00
2022-09-05T04:15:42.900Z,15.00
2022-09-05T04:18:18.800Z,15.00
2022-09-05T04:21:18.374Z,15.00
2022-09-05T04:24:16.897Z,15.00
2022-09-05T04:27:12.832Z,14.90
2022-09-05T04:30:04.995Z,14.90
2022-09-05T04:33:16.655Z,14.80
2022-09-05T04:36:01.263Z,14.80
2022-09-05T04:38:45.505Z,14.70
2022-09-05T04:41:39.320Z,14.70
2022-09-05T04:44:17.777Z,14.60
2022-09-05T04:46:57.417Z,14.60
2022-09-05T04:49:38.315Z,14.50
2022-09-05T04:52:41.969Z,14.50
2022-09-05T04:55:24.828Z,14.40
2022-09-05T04:58:10.817Z,14.40
2022-09-05T05:06:05.845Z,14.40
2022-09-05T05:06:09.242Z,14.40
2022-09-05T05:07:13.432Z,14.40
2022-09-05T05:11:36.530Z,14.40
2022-09-05T05:17:57.745Z,14.50
2022-09-05T05:18:07.633Z,14.50
2022-09-05T05:19:33.705Z,14.50
2022-09-05T05:22:13.217Z,14.50
2022-09-05T05:24:52.559Z,14.50
2022-09-05T05:27:47.057Z,14.50
2022-09-05T05:30:31.611Z,14.60
2022-09-05T05:33:34.889Z,14.80
2022-09-05T05:36:16.380Z,14.90
2022-09-05T05:39:05.725Z,15.00
2022-09-05T05:41:57.161Z,15.10
2022-09-05T05:44:36.659Z,15.10
2022-09-05T05:47:26.828Z,15.10
2022-09-05T05:50:11.446Z,15.10
2022-09-05T05:53:11.652Z,15.10
2022-09-05T05:56:25.194Z,15.20
2022-09-05T05:59:25.792Z,15.20
2022-09-05T06:02:10.182Z,15.20
2022-09-05T06:05:03.947Z,15.40
2022-09-05T06:10:26.349Z,15.50
2022-09-05T06:14:48.728Z,15.50
2022-09-05T06:15:21.109Z,15.60
2022-09-05T06:17:55.611Z,15.80
2022-09-05T06:22:06.807Z,16.00
2022-09-05T06:24:16.922Z,16.10
2022-09-05T06:27:14.217Z,16.30
2022-09-05T06:30:08.868Z,16.50
2022-09-05T06:33:00.183Z,16.70
2022-09-05T06:36:04.650Z,16.90
2022-09-05T06:39:01.682Z,17.10
2022-09-05T06:41:59.718Z,17.30
2022-09-05T06:44:55.710Z,17.40
2022-09-05T06:47:36.643Z,17.60
2022-09-05T06:50:27.442Z,17.80
2022-09-05T06:53:22.463Z,17.90
2022-09-05T06:56:26.735Z,18.10
2022-09-05T06:59:35.711Z,18.30
2022-09-05T07:02:58.412Z,18.60
2022-09-05T07:05:50.191Z,18.70
2022-09-05T07:08:44.242Z,19.00
2022-09-05T07:11:22.281Z,19.00
2022-09-05T07:14:09.928Z,19.30
2022-09-05T07:16:46.662Z,19.60
2022-09-05T07:19:29.489Z,19.80
2022-09-05T07:22:47.153Z,19.80
2022-09-05T07:25:26.485Z,20.00
2022-09-05T07:28:26.669Z,20.30
2022-09-05T07:31:26.518Z,20.50
2022-09-05T07:34:24.836Z,20.70
2022-09-05T07:37:14.915Z,20.90
2022-09-05T07:40:25.451Z,21.00
2022-09-05T07:43:09.484Z,21.20
2022-09-05T07:45:55.966Z,21.40
2022-09-05T07:48:35.174Z,21.60
2022-09-05T07:55:20.414Z,21.80
2022-09-05T07:56:58.646Z,21.90
2022-09-05T08:00:25.601Z,22.10
2022-09-05T08:03:09.936Z,22.20
2022-09-05T08:05:46.098Z,22.40
2022-09-05T08:08:31.443Z,22.60
2022-09-05T08:11:25.045Z,22.60
2022-09-05T08:14:40.713Z,22.70
2022-09-05T08:17:10.583Z,22.80
2022-09-05T08:20:26.034Z,22.90
2022-09-05T08:23:15.588Z,23.10
2022-09-05T08:25:56.714Z,23.20
2022-09-05T08:29:02.602Z,23.20
2022-09-05T08:31:42.335Z,23.30
2022-09-05T08:34:45.257Z,23.40
2022-09-05T08:37:25.790Z,23.60
2022-09-05T08:40:18.295Z,23.80
2022-09-05T08:46:07.843Z,23.90
2022-09-05T08:46:41.438Z,24.00
2022-09-05T08:49:12.086Z,24.10
2022-09-05T08:52:15.339Z,24.20
2022-09-05T08:55:07.769Z,24.30
2022-09-05T08:58:15.423Z,24.20
2022-09-05T09:01:20.604Z,24.30
2022-09-05T09:04:17.760Z,24.40
2022-09-05T09:07:51.259Z,24.50
2022-09-05T09:10:34.752Z,24.50
2022-09-05T09:13:19.040Z,24.50
2022-09-05T09:16:19.955Z,24.50
2022-09-05T09:18:52.679Z,24.60
2022-09-05T09:21:58.194Z,24.60
2022-09-05T09:25:37.579Z,24.50
2022-09-05T09:28:55.939Z,24.20
2022-09-05T09:31:41.180Z,24.30
2022-09-05T09:34:26.199Z,24.50
2022-09-05T09:37:27.585Z,24.70
2022-09-05T09:41:04.499Z,24.90
2022-09-05T09:43:57.423Z,24.90
2022-09-05T09:46:53.315Z,25.00
2022-09-05T09:50:03.257Z,25.00
2022-09-05T09:52:54.117Z,25.20
2022-09-05T09:55:54.665Z,25.20
2022-09-05T09:58:43.820Z,25.10
2022-09-05T10:01:37.309Z,25.10
2022-09-05T10:10:33.874Z,25.10
2022-09-05T10:10:50.236Z,25.00
2022-09-05T10:11:55.209Z,25.00
2022-09-05T10:15:08.562Z,25.10
2022-09-05T10:18:31.793Z,25.20
2022-09-05T10:21:36.013Z,25.30
2022-09-05T10:24:34.563Z,25.40
2022-09-05T10:27:19.896Z,25.40
2022-09-05T10:30:09.984Z,25.40
2022-09-05T10:35:17.913Z,25.40
2022-09-05T10:36:19.223Z,25.50
2022-09-05T10:39:03.294Z,25.60
2022-09-05T10:41:50.013Z,25.70
2022-09-05T10:44:41.250Z,26.10
2022-09-05T10:47:14.219Z,26.30
2022-09-05T10:49:57.204Z,26.50
2022-09-05T10:56:02.165Z,26.80
2022-09-05T11:01:55.935Z,27.00
2022-09-05T11:04:37.085Z,27.50
2022-09-05T11:07:29.959Z,27.50
2022-09-05T11:10:07.222Z,27.30
2022-09-05T11:12:58.533Z,27.10
2022-09-05T11:15:45.768Z,27.00
2022-09-05T11:18:59.108Z,26.90
2022-09-05T11:22:10.298Z,26.90
2022-09-05T11:25:41.326Z,27.10
2022-09-05T11:28:18.688Z,27.60
2022-09-05T11:30:55.495Z,28.10
2022-09-05T11:37:50.756Z,28.30
2022-09-05T11:40:04.814Z,28.40
2022-09-05T11:40:06.899Z,28.40
2022-09-05T11:42:55.410Z,28.30
2022-09-05T11:45:42.170Z,28.40
2022-09-05T11:48:33.207Z,28.70
2022-09-05T11:51:44.794Z,28.70
2022-09-05T11:54:33.085Z,28.70
2022-09-05T11:57:32.750Z,28.70
2022-09-05T12:00:31.339Z,28.80
2022-09-05T12:03:59.027Z,28.70
2022-09-05T12:07:26.811Z,28.60
2022-09-05T12:10:46.774Z,28.50
2022-09-05T12:13:32.098Z,28.40
2022-09-05T12:16:52.886Z,28.30
2022-09-05T12:19:50.389Z,28.10
2022-09-05T12:22:38.880Z,28.00
2022-09-05T12:27:42.787Z,28.30
2022-09-05T12:36:06.440Z,29.90
2022-09-05T12:40:05.147Z,30.10
2022-09-05T12:41:36.874Z,30.20
2022-09-05T12:44:34.680Z,30.20
2022-09-05T12:46:36.782Z,30.20
2022-09-05T12:49:52.047Z,30.00
2022-09-05T12:52:36.890Z,29.80
2022-09-05T12:55:30.755Z,29.60
2022-09-05T13:02:57.392Z,29.50
2022-09-05T13:03:13.073Z,29.30
2022-09-05T13:05:09.438Z,29.10
2022-09-05T13:07:50.029Z,28.90
2022-09-05T13:14:50.516Z,28.80
2022-09-05T13:14:52.472Z,28.70
2022-09-05T13:16:31.727Z,28.60
2022-09-05T13:19:07.536Z,28.50
2022-09-05T13:21:50.263Z,28.40
2022-09-05T13:24:29.989Z,28.30
2022-09-05T13:27:08.787Z,28.20
2022-09-05T13:31:24.827Z,28.10
2022-09-05T13:38:08.370Z,28.10
2022-09-05T13:38:11.970Z,28.00
2022-09-05T13:39:09.644Z,28.00
2022-09-05T13:41:48.682Z,28.00
2022-09-05T13:44:27.184Z,28.00
2022-09-05T13:47:14.777Z,28.10
2022-09-05T13:50:23.035Z,28.10
2022-09-05T13:52:58.746Z,28.10
2022-09-05T13:55:53.864Z,28.10
2022-09-05T13:58:56.656Z,28.10
2022-09-05T14:02:25.816Z,28.20
2022-09-05T14:05:23.696Z,28.10
2022-09-05T14:08:19.793Z,28.10
2022-09-05T14:11:07.009Z,28.10
2022-09-05T14:14:11.252Z,28.10
2022-09-05T14:16:53.671Z,28.00
2022-09-05T14:19:47.332Z,28.00
2022-09-05T14:22:51.406Z,28.00
2022-09-05T14:25:29.183Z,28.00
2022-09-05T14:28:05.629Z,28.00
2022-09-05T14:32:32.573Z,28.10
2022-09-05T14:37:42.125Z,28.00
2022-09-05T14:37:51.500Z,28.00
2022-09-05T14:40:27.538Z,27.90
2022-09-05T14:43:47.614Z,27.80
2022-09-05T14:46:54.245Z,27.70
2022-09-05T14:49:49.414Z,27.70
2022-09-05T14:52:35.546Z,27.60
2022-09-05T15:02:42.516Z,27.60
2022-09-05T15:02:54.501Z,27.60
2022-09-05T15:07:00.710Z,27.50
2022-09-05T15:12:14.090Z,27.40
2022-09-05T15:12:38.542Z,27.40
2022-09-05T15:15:20.057Z,27.30
2022-09-05T15:17:58.486Z,27.20
2022-09-05T15:20:41.309Z,27.20
2022-09-05T15:23:43.007Z,27.20
2022-09-05T15:29:14.720Z,27.20
2022-09-05T15:31:53.257Z,27.20
2022-09-05T15:34:40.650Z,27.20
2022-09-05T15:37:36.772Z,27.10
2022-09-05T15:40:23.373Z,27.20
2022-09-05T15:43:01.914Z,27.20
2022-09-05T15:45:37.164Z,27.10
2022-09-05T15:48:18.657Z,27.10
2022-09-05T15:50:55.301Z,27.10
2022-09-05T15:53:36.362Z,27.10
2022-09-05T15:56:11.977Z,27.00
2022-09-05T15:58:55.307Z,26.90
2022-09-05T16:01:58.293Z,26.90
2022-09-05T16:10:30.389Z,26.80
2022-09-05T16:10:33.561Z,26.80
2022-09-05T16:10:38.385Z,26.80
2022-09-05T16:13:18.165Z,26.80
2022-09-05T16:20:49.715Z,26.80
2022-09-05T16:23:25.288Z,26.70
2022-09-05T16:23:27.193Z,26.60
2022-09-05T16:24:59.056Z,26.50
2022-09-05T16:27:59.583Z,26.40
2022-09-05T16:30:35.362Z,26.30
2022-09-05T16:33:17.054Z,26.20
2022-09-05T16:36:02.817Z,26.10
2022-09-05T16:38:50.084Z,26.10
2022-09-05T16:41:51.190Z,26.00
2022-09-05T16:44:42.731Z,26.00
2022-09-05T16:47:25.405Z,26.00
2022-09-05T16:50:24.088Z,26.00
2022-09-05T16:53:28.062Z,26.00
2022-09-05T16:56:26.691Z,25.90
2022-09-05T16:59:10.311Z,25.90
2022-09-05T17:02:06.515Z,25.80
2022-09-05T17:05:10.518Z,25.70
2022-09-05T17:08:21.606Z,25.70
2022-09-05T17:11:08.198Z,25.60
2022-09-05T17:13:53.884Z,25.60
2022-09-05T17:16:47.090Z,25.50
2022-09-05T17:19:27.370Z,25.40
2022-09-05T17:23:10.310Z,25.30
2022-09-05T17:29:20.625Z,25.30
2022-09-05T17:29:48.871Z,25.20
2022-09-05T17:31:53.751Z,25.10
2022-09-05T17:34:37.085Z,25.10
2022-09-05T17:37:26.269Z,25.00
2022-09-05T17:40:18.614Z,24.90
2022-09-05T17:43:02.077Z,24.90
2022-09-05T17:46:06.653Z,24.80
2022-09-05T17:49:08.617Z,24.80
2022-09-05T17:51:41.959Z,24.70
2022-09-05T17:54:30.284Z,24.70
2022-09-05T17:57:27.886Z,24.70
2022-09-05T18:00:21.887Z,24.60
2022-09-05T18:02:56.640Z,24.60
2022-09-05T18:06:01.013Z,24.50
2022-09-05T18:08:49.910Z,24.50
2022-09-05T18:11:27.054Z,24.40
2022-09-05T18:14:24.659Z,24.40
2022-09-05T18:17:37.429Z,24.30
2022-09-05T18:19:57.823Z,24.20
2022-09-05T18:22:35.309Z,24.20
2022-09-05T18:25:30.774Z,24.20
2022-09-05T18:28:32.490Z,24.00
2022-09-05T18:31:41.803Z,24.00
2022-09-05T18:34:21.135Z,23.90
2022-09-05T18:36:56.176Z,23.80
2022-09-05T18:39:30.214Z,23.70
2022-09-05T18:42:26.498Z,23.60
2022-09-05T18:45:17.363Z,23.50
2022-09-05T18:47:59.431Z,23.40
2022-09-05T18:50:36.294Z,23.40
2022-09-05T18:53:19.337Z,23.30
2022-09-05T18:56:20.155Z,23.20
2022-09-05T18:59:10.132Z,23.20
2022-09-05T19:01:52.325Z,23.10
2022-09-05T19:04:53.330Z,23.00
2022-09-05T19:07:35.432Z,22.90
2022-09-05T19:10:34.522Z,22.90
2022-09-05T19:13:15.452Z,22.90
2022-09-05T19:16:43.797Z,22.90
2022-09-05T19:19:16.377Z,22.80
2022-09-05T19:22:16.209Z,22.80
2022-09-05T19:24:46.381Z,22.80
2022-09-05T19:27:34.235Z,22.80
2022-09-05T19:36:50.242Z,22.70
2022-09-05T19:36:56.792Z,22.60
2022-09-05T19:37:09.979Z,22.70
2022-09-05T19:45:48.965Z,22.40
2022-09-05T19:47:25.972Z,22.40
2022-09-05T19:47:50.723Z,22.40
2022-09-05T19:48:21.018Z,22.40
2022-09-05T19:51:17.569Z,22.40
2022-09-05T19:54:03.849Z,22.40
2022-09-05T19:56:44.695Z,22.40
2022-09-05T19:59:22.865Z,22.40
2022-09-05T20:01:57.400Z,22.40
2022-09-05T20:04:47.883Z,22.30
2022-09-05T20:07:28.224Z,22.30
2022-09-05T20:10:03.847Z,22.20
2022-09-05T20:12:39.226Z,22.20
2022-09-05T20:15:20.747Z,22.20
2022-09-05T20:17:55.340Z,22.20
2022-09-05T20:20:31.158Z,22.20
2022-09-05T20:23:07.915Z,22.10
2022-09-05T20:25:47.160Z,22.10
2022-09-05T20:28:25.340Z,22.10
2022-09-05T20:31:01.891Z,22.10
2022-09-05T20:33:53.346Z,22.10
2022-09-05T20:42:51.241Z,22.10
2022-09-05T20:43:19.347Z,22.10
2022-09-05T20:43:24.588Z,22.10
2022-09-05T20:47:39.923Z,22.10
2022-09-05T20:54:09.665Z,22.00
2022-09-05T20:54:26.767Z,22.00
2022-09-05T20:54:42.489Z,22.00
2022-09-05T20:57:18.681Z,22.00
2022-09-05T20:59:51.724Z,22.00
2022-09-05T21:02:33.001Z,22.00
2022-09-05T21:05:22.363Z,22.00
2022-09-05T21:08:15.566Z,22.00
2022-09-05T21:10:55.750Z,22.00
2022-09-05T21:13:33.214Z,22.00
2022-09-05T21:16:19.020Z,22.00
2022-09-05T21:18:52.176Z,22.00
2022-09-05T21:21:33.724Z,21.90
2022-09-05T21:24:16.967Z,21.90
2022-09-05T21:26:51.450Z,21.90
2022-09-05T21:29:32.210Z,21.90
2022-09-05T21:32:10.414Z,22.00
2022-09-05T21:34:49.435Z,21.90
2022-09-05T21:37:23.302Z,21.90
2022-09-05T21:40:00.208Z,21.80
2022-09-05T21:42:54.791Z,21.80
2022-09-05T21:47:43.207Z,21.70
2022-09-05T21:48:20.601Z,21.70
2022-09-05T21:50:56.865Z,21.70
2022-09-05T21:59:16.214Z,21.70
2022-09-05T21:59:28.486Z,21.80
2022-09-05T21:59:46.864Z,21.80
2022-09-05T22:02:20.478Z,21.80
2022-09-05T22:05:02.146Z,21.90
2022-09-05T22:07:36.635Z,21.90
2022-09-05T22:10:10.422Z,21.90
2022-09-05T22:12:43.649Z,21.80
2022-09-05T22:15:29.179Z,21.70
2022-09-05T22:18:16.780Z,21.70
2022-09-05T22:21:32.607Z,21.60
2022-09-05T22:23:50.347Z,21.50
2022-09-05T22:26:23.154Z,21.40
2022-09-05T22:28:56.303Z,21.40
2022-09-05T22:31:30.758Z,21.40
2022-09-05T22:34:03.611Z,21.30
2022-09-05T22:36:37.042Z,21.20
2022-09-05T22:39:12.726Z,21.20
2022-09-05T22:41:50.895Z,21.10
2022-09-05T22:44:23.841Z,21.10
2022-09-05T22:46:56.598Z,21.00
2022-09-05T22:49:29.462Z,21.00
2022-09-05T22:52:09.563Z,21.00
2022-09-05T22:54:42.388Z,21.00
2022-09-05T22:57:15.183Z,21.00
2022-09-05T22:59:47.934Z,20.90
2022-09-05T23:02:20.759Z,20.90
2022-09-05T23:04:53.530Z,20.90
2022-09-05T23:07:26.316Z,20.80
2022-09-05T23:09:59.362Z,20.80
2022-09-05T23:12:36.717Z,20.70
2022-09-05T23:15:09.909Z,20.60
2022-09-05T23:17:42.923Z,20.60
2022-09-05T23:20:16.725Z,20.60
2022-09-05T23:22:49.549Z,20.50
2022-09-05T23:25:23.515Z,20.40
2022-09-05T23:27:56.288Z,20.30
2022-09-05T23:30:29.202Z,20.20
2022-09-05T23:33:01.964Z,20.20
2022-09-05T23:35:35.589Z,20.10
2022-09-05T23:38:12.107Z,20.10
2022-09-05T23:40:45.659Z,20.00
2022-09-05T23:43:18.403Z,20.00
2022-09-05T23:45:51.311Z,19.90
2022-09-05T23:48:24.626Z,19.90
2022-09-05T23:50:57.510Z,19.80
2022-09-05T23:53:30.351Z,19.80
2022-09-05T23:56:04.524Z,19.70
2022-09-05T23:58:38.612Z,19.60
